Soumagne, Belgium
Current Conditions -  °F | °C
As of 11:20 PM on Friday 24 Oct 2014 (Local Time) from EBLG Reporting Station
Broken Clouds Broken Clouds  
Wind Chill: 52°   Ceiling: 2300
Heat Index: 52°   Visibility: 6mi
Dew Point: 46°   Wind: 12mph
Humidity: 82%   Direction: 180°S
Pressure: 30.06"   Gusts: NA
Location:  50.61°N, 5.75°E
Report Text: EBLG 242120Z 18010KT 9999 BKN023 11/08 Q1018 TEMPO 6000 SCT007 BKN015
Loading
Personal Weather Stations






























Interactive Weather Map
Tropical Storm Tracking
New forecast layout! Learn more

10-Day Weather Forecast

Advertisements
Track Severe Weather on mobile